DEWDEER PARK
METARs for airports near DEW, sorted by distance:
N 0 nm 2210' KDEW 080753Z 06003KT 10SM CLR 12/06 A3002
S 17 nm 1956' KSFF 080753Z 03003KT 10SM CLR 19/08 A3001
S 21 nm 2385' KGEG 080753Z 00000KT 10SM CLR 22/03 A3002
SW 23 nm 2462' KSKA 080758Z 00000KT 9SM CLR 18/02 A3001
SE 27 nm 2320' KCOE 080756Z 00000KT 10SM CLR 18/10 A3003
NE 40 nm 2131' KSZT 080755Z 00000KT 10SM CLR 13/08 A3003
S 74 nm 2566' KPUW 080753Z 00000KT 10SM CLR 14/04 A3005
W 88 nm 1304' KOMK 080753Z 27006KT 10SM CLR 22/06 A2995
SW 89 nm 1188' KMWH 080752Z 00000KT 10SM 20/08 A2995
E 89 nm 2466' KTHM 080655Z 00000KT 10SM 15/09 A3011
SW 93 nm 1276' KEPH 080753Z 00000KT 10SM CLR 18/01 A2994
S 97 nm 1442' KLWS 080756Z 15004KT 10SM CLR 21/01 A2997
TAFs for airports near DEW, sorted by distance:
S 17 nm 1956' KSFF TAF KSFF 080520Z 0806/0906 VRB03KT P6SM SKC
S 21 nm 2385' KGEG TAF KGEG 080520Z 0806/0906 19005KT P6SM SKC
  FM080800 11004KT P6SM SKC
  FM082000 20008KT P6SM SKC
  FM090000 24007KT P6SM FEW250
SW 23 nm 2462' KSKA TAF KSKA 080300Z 0803/0909 20008KT 9999 SKC QNH3005INS
  BECMG 0901/0902 23009KT 9999 BKN130 QNH2993INS TX29/0803Z TN15/0812Z
SE 27 nm 2320' KCOE TAF KCOE 080520Z 0806/0906 11006KT P6SM SKC
  FM082100 23007KT P6SM SKC
  FM090300 VRB04KT P6SM SKC
S 74 nm 2566' KPUW TAF KPUW 080520Z 0806/0906 VRB03KT P6SM SKC
  FM081100 12006KT P6SM SKC
SW 89 nm 1188' KMWH TAF KMWH 080520Z 0806/0906 27004KT P6SM SKC
  FM082100 20007KT P6SM SKC
  FM090300 18006KT P6SM SKC
S 97 nm 1442' KLWS TAF KLWS 080520Z 0806/0906 08008KT P6SM SKC
  FM081800 34004KT P6SM SKC
  FM082200 VRB04KT P6SM SKC

Shortcut to this page: http://wxbay.com.

Data may contain errors.